createdAt,value
2017-09-05T00:02:04.806Z,12.40
2017-09-05T00:04:33.159Z,12.50
2017-09-05T00:07:01.479Z,12.67
2017-09-05T00:09:29.827Z,12.79
2017-09-05T00:11:59.114Z,12.90
2017-09-05T00:14:35.871Z,12.99
2017-09-05T00:17:04.893Z,12.99
2017-09-05T00:22:32.698Z,12.94
2017-09-05T00:25:01.049Z,13.03
2017-09-05T00:27:29.365Z,13.10
2017-09-05T00:29:57.680Z,12.88
2017-09-05T00:32:26.023Z,12.91
2017-09-05T00:34:54.338Z,13.08
2017-09-05T00:37:22.659Z,12.97
2017-09-05T00:39:50.998Z,12.89
2017-09-05T00:42:19.317Z,12.83
2017-09-05T00:44:47.650Z,12.96
2017-09-05T00:47:15.966Z,13.09
2017-09-05T00:49:44.278Z,13.25
2017-09-05T00:52:12.625Z,13.31
2017-09-05T00:54:40.947Z,13.43
2017-09-05T00:57:09.268Z,13.56
2017-09-05T00:59:37.615Z,13.47
2017-09-05T01:02:05.944Z,13.49
2017-09-05T01:04:34.251Z,13.55
2017-09-05T01:07:02.591Z,13.52
2017-09-05T01:09:30.911Z,13.63
2017-09-05T01:11:59.259Z,13.54
2017-09-05T01:14:27.575Z,13.66
2017-09-05T01:16:55.935Z,13.58
2017-09-05T01:19:24.270Z,13.54
2017-09-05T01:21:52.588Z,13.44
2017-09-05T01:24:20.930Z,13.59
2017-09-05T01:26:49.246Z,13.55
2017-09-05T01:29:17.566Z,13.54
2017-09-05T01:31:45.909Z,13.43
2017-09-05T01:34:14.226Z,13.39
2017-09-05T01:36:42.554Z,13.52
2017-09-05T01:39:10.889Z,13.60
2017-09-05T01:41:39.205Z,13.69
2017-09-05T01:44:07.539Z,13.65
2017-09-05T01:46:35.880Z,13.85
2017-09-05T01:49:04.190Z,13.95
2017-09-05T01:51:32.539Z,13.94
2017-09-05T01:54:00.854Z,13.95
2017-09-05T01:56:29.203Z,14.01
2017-09-05T01:58:57.514Z,14.00
2017-09-05T02:01:25.858Z,13.89
2017-09-05T02:03:54.185Z,13.99
2017-09-05T02:06:22.498Z,14.00
2017-09-05T02:08:50.839Z,14.08
2017-09-05T02:11:19.154Z,14.11
2017-09-05T02:13:47.471Z,14.17
2017-09-05T02:16:15.814Z,13.98
2017-09-05T02:18:44.134Z,14.08
2017-09-05T02:21:12.470Z,13.99
2017-09-05T02:23:40.788Z,14.01
2017-09-05T02:26:09.134Z,14.12
2017-09-05T02:28:37.451Z,14.19
2017-09-05T02:31:05.759Z,14.33
2017-09-05T02:33:34.103Z,14.28
2017-09-05T02:36:02.418Z,14.32
2017-09-05T02:38:30.745Z,14.40
2017-09-05T02:40:59.086Z,14.44
2017-09-05T02:43:27.425Z,14.42
2017-09-05T02:45:55.743Z,14.41
2017-09-05T02:48:24.084Z,14.38
2017-09-05T02:50:52.398Z,14.44
2017-09-05T02:53:20.752Z,14.47
2017-09-05T02:55:49.079Z,14.47
2017-09-05T02:58:17.396Z,14.36
2017-09-05T03:00:45.734Z,14.39
2017-09-05T03:03:14.054Z,14.52
2017-09-05T03:05:42.402Z,14.42
2017-09-05T03:08:10.727Z,14.45
2017-09-05T03:10:39.043Z,14.49
2017-09-05T03:13:07.390Z,14.53
2017-09-05T03:15:35.710Z,14.59
2017-09-05T03:18:04.025Z,14.57
2017-09-05T03:20:32.376Z,14.51
2017-09-05T03:23:00.690Z,14.53
2017-09-05T03:25:29.034Z,14.56
2017-09-05T03:27:57.359Z,14.57
2017-09-05T03:30:25.675Z,14.55
2017-09-05T03:32:54.015Z,14.46
2017-09-05T03:35:22.342Z,14.22
2017-09-05T03:37:50.682Z,14.39
2017-09-05T03:40:18.999Z,14.52
2017-09-05T03:42:47.324Z,14.50
2017-09-05T03:45:15.658Z,14.58
2017-09-05T03:47:43.980Z,14.37
2017-09-05T03:50:12.329Z,14.34
2017-09-05T03:52:40.643Z,14.28
2017-09-05T03:55:08.988Z,14.24
2017-09-05T03:57:37.299Z,14.34
2017-09-05T04:00:05.617Z,14.35
2017-09-05T04:02:33.962Z,14.39
2017-09-05T04:05:02.282Z,14.60
2017-09-05T04:07:30.601Z,14.52
2017-09-05T04:09:58.950Z,14.58
2017-09-05T04:12:27.258Z,14.64
2017-09-05T04:14:55.576Z,14.74
2017-09-05T04:17:23.915Z,14.70
2017-09-05T04:19:52.231Z,14.74
2017-09-05T04:22:20.546Z,14.85
2017-09-05T04:24:48.890Z,14.74
2017-09-05T04:27:17.212Z,14.75
2017-09-05T04:29:45.562Z,14.72
2017-09-05T04:32:13.879Z,14.91
2017-09-05T04:34:42.199Z,14.76
2017-09-05T04:37:10.539Z,14.91
2017-09-05T04:39:38.856Z,14.91
2017-09-05T04:42:07.201Z,14.92
2017-09-05T04:44:35.522Z,14.83
2017-09-05T04:47:03.856Z,14.89
2017-09-05T04:49:32.177Z,14.95
2017-09-05T04:52:00.523Z,14.99
2017-09-05T04:54:28.838Z,15.07
2017-09-05T04:56:57.151Z,15.17
2017-09-05T04:59:25.499Z,15.18
2017-09-05T05:01:53.811Z,15.14
2017-09-05T05:04:22.127Z,15.24
2017-09-05T05:06:51.231Z,15.29
2017-09-05T05:09:19.555Z,15.38
2017-09-05T05:11:47.886Z,15.46
2017-09-05T05:14:16.198Z,15.44
2017-09-05T05:16:44.559Z,15.51
2017-09-05T05:19:12.879Z,15.58
2017-09-05T05:21:41.244Z,15.67
2017-09-05T05:24:09.562Z,15.53
2017-09-05T05:26:37.885Z,15.58
2017-09-05T05:29:06.226Z,15.61
2017-09-05T05:31:34.551Z,15.61
2017-09-05T05:34:02.867Z,15.67
2017-09-05T05:36:31.208Z,15.80
2017-09-05T05:38:59.524Z,15.84
2017-09-05T05:41:27.875Z,15.91
2017-09-05T05:43:56.193Z,15.91
2017-09-05T05:46:24.542Z,15.96
2017-09-05T05:48:52.930Z,16.10
2017-09-05T05:51:21.329Z,16.21
2017-09-05T05:53:49.904Z,16.25
2017-09-05T05:56:18.222Z,16.19
2017-09-05T05:58:46.771Z,16.22
2017-09-05T06:01:15.424Z,16.30
2017-09-05T06:03:43.738Z,16.40
2017-09-05T06:06:12.058Z,16.45
2017-09-05T06:08:40.403Z,16.38
2017-09-05T06:11:08.714Z,16.33
2017-09-05T06:13:37.026Z,16.45
2017-09-05T06:16:05.382Z,16.52
2017-09-05T06:18:33.707Z,16.57
2017-09-05T06:21:02.063Z,16.55
2017-09-05T06:23:30.378Z,16.65
2017-09-05T06:25:58.694Z,16.66
2017-09-05T06:28:27.039Z,16.65
2017-09-05T06:30:55.354Z,16.88
2017-09-05T06:33:23.670Z,17.02
2017-09-05T06:35:52.014Z,17.00
2017-09-05T06:38:20.326Z,17.06
2017-09-05T06:40:48.638Z,17.19
2017-09-05T06:43:16.982Z,17.07
2017-09-05T06:45:45.513Z,17.01
2017-09-05T06:48:14.039Z,17.09
2017-09-05T06:50:42.373Z,17.03
2017-09-05T06:53:10.685Z,17.24
2017-09-05T06:55:39.023Z,17.33
2017-09-05T06:58:07.336Z,17.50
2017-09-05T07:00:35.674Z,17.33
2017-09-05T07:03:03.993Z,17.18
2017-09-05T07:05:32.307Z,17.19
2017-09-05T07:08:00.649Z,17.32
2017-09-05T07:10:28.963Z,17.41
2017-09-05T07:12:57.280Z,17.48
2017-09-05T07:15:25.621Z,17.64
2017-09-05T07:17:53.934Z,17.63
2017-09-05T07:20:22.270Z,17.64
2017-09-05T07:22:50.586Z,17.88
2017-09-05T07:25:18.902Z,17.63
2017-09-05T07:27:47.241Z,17.67
2017-09-05T07:30:15.558Z,17.68
2017-09-05T07:32:43.918Z,17.70
2017-09-05T07:35:12.236Z,17.72
2017-09-05T07:37:40.549Z,17.84
2017-09-05T07:40:08.894Z,18.00
2017-09-05T07:42:37.298Z,18.33
2017-09-05T07:45:05.618Z,18.44
2017-09-05T07:47:33.972Z,18.44
2017-09-05T07:50:02.288Z,18.38
2017-09-05T07:52:30.637Z,18.57
2017-09-05T07:54:58.949Z,18.55
2017-09-05T07:57:27.275Z,18.59
2017-09-05T07:59:55.630Z,18.39
2017-09-05T08:02:23.944Z,18.03
2017-09-05T08:04:52.319Z,17.99
2017-09-05T08:07:21.020Z,18.10
2017-09-05T08:09:49.334Z,17.88
2017-09-05T08:12:17.678Z,17.74
2017-09-05T08:14:45.994Z,17.92
2017-09-05T08:17:14.315Z,17.89
2017-09-05T08:19:42.658Z,18.06
2017-09-05T08:22:10.971Z,18.32
2017-09-05T08:24:39.318Z,18.54
2017-09-05T08:27:07.634Z,18.71
2017-09-05T08:29:35.973Z,18.35
2017-09-05T08:32:04.296Z,18.56
2017-09-05T08:34:32.650Z,18.62
2017-09-05T08:37:00.962Z,18.47
2017-09-05T08:39:29.278Z,18.76
2017-09-05T08:41:57.641Z,19.12
2017-09-05T08:44:25.959Z,19.25
2017-09-05T08:46:54.303Z,19.04
2017-09-05T08:49:22.634Z,19.38
2017-09-05T08:51:50.957Z,19.60
2017-09-05T08:54:19.299Z,19.69
2017-09-05T08:56:47.623Z,19.64
2017-09-05T08:59:15.962Z,19.70
2017-09-05T09:01:44.291Z,19.71
2017-09-05T09:04:12.635Z,19.42
2017-09-05T09:06:40.978Z,19.75
2017-09-05T09:09:09.306Z,20.34
2017-09-05T09:11:37.621Z,20.58
2017-09-05T09:14:05.974Z,20.93
2017-09-05T09:16:34.294Z,21.10
2017-09-05T09:19:02.635Z,21.15
2017-09-05T09:21:30.955Z,21.36
2017-09-05T09:23:59.291Z,21.33
2017-09-05T09:26:27.642Z,21.08
2017-09-05T09:28:55.965Z,21.05
2017-09-05T09:31:24.274Z,21.03
2017-09-05T09:33:52.627Z,21.19
2017-09-05T09:36:20.954Z,20.97
2017-09-05T09:38:49.294Z,20.97
2017-09-05T09:41:17.615Z,21.26
2017-09-05T09:43:45.931Z,21.15
2017-09-05T09:46:14.279Z,21.18
2017-09-05T09:48:42.642Z,21.33
2017-09-05T09:51:10.961Z,21.53
2017-09-05T09:53:39.306Z,21.23
2017-09-05T09:56:07.634Z,21.20
2017-09-05T09:58:35.951Z,21.27
2017-09-05T10:01:04.294Z,20.93
2017-09-05T10:03:32.627Z,21.12
2017-09-05T10:06:00.981Z,21.06
2017-09-05T10:08:29.298Z,21.12
2017-09-05T10:10:57.626Z,21.05
2017-09-05T10:13:25.981Z,21.16
2017-09-05T10:15:54.299Z,21.16
2017-09-05T10:18:22.614Z,21.31
2017-09-05T10:20:50.946Z,21.43
2017-09-05T10:23:19.269Z,21.31
2017-09-05T10:25:47.602Z,21.14
2017-09-05T10:28:15.921Z,21.09
2017-09-05T10:30:44.270Z,21.31
2017-09-05T10:33:12.587Z,21.50
2017-09-05T10:35:40.923Z,21.75
2017-09-05T10:38:09.278Z,21.83
2017-09-05T10:40:37.600Z,21.45
2017-09-05T10:43:05.915Z,21.81
2017-09-05T10:45:34.259Z,22.28
2017-09-05T10:48:02.653Z,22.39
2017-09-05T10:50:31.001Z,22.98
2017-09-05T10:52:59.332Z,23.28
2017-09-05T10:55:27.651Z,23.50
2017-09-05T10:57:55.999Z,23.49
2017-09-05T11:00:24.326Z,23.26
2017-09-05T11:02:52.646Z,23.14
2017-09-05T11:05:20.998Z,22.67
2017-09-05T11:07:49.314Z,22.75
2017-09-05T11:10:17.631Z,22.72
2017-09-05T11:12:45.970Z,22.54
2017-09-05T11:15:14.304Z,22.78
2017-09-05T11:17:42.651Z,23.18
2017-09-05T11:20:10.966Z,23.05
2017-09-05T11:22:39.284Z,22.97
2017-09-05T11:25:07.628Z,23.47
2017-09-05T11:27:35.949Z,23.67
2017-09-05T11:30:04.267Z,23.92
2017-09-05T11:32:32.610Z,24.34
2017-09-05T11:35:00.922Z,24.64
2017-09-05T11:37:29.238Z,24.60
2017-09-05T11:39:57.580Z,24.79
2017-09-05T11:42:25.898Z,24.83
2017-09-05T11:44:54.218Z,24.62
2017-09-05T11:47:22.558Z,24.87
2017-09-05T11:49:50.874Z,24.72
2017-09-05T11:52:19.210Z,24.90
2017-09-05T11:54:47.525Z,25.30
2017-09-05T11:57:15.865Z,25.35
2017-09-05T11:59:44.180Z,25.34
2017-09-05T12:02:12.496Z,25.34
2017-09-05T12:04:40.834Z,25.93
2017-09-05T12:07:09.160Z,25.89
2017-09-05T12:09:37.483Z,26.83
2017-09-05T12:12:05.822Z,26.57
2017-09-05T12:14:34.135Z,26.70
2017-09-05T12:17:02.463Z,27.03
2017-09-05T12:19:30.813Z,26.95
2017-09-05T12:21:59.126Z,26.74
2017-09-05T12:24:27.473Z,26.58
2017-09-05T12:26:55.788Z,26.45
2017-09-05T12:29:24.106Z,26.31
2017-09-05T12:31:52.445Z,26.03
2017-09-05T12:34:20.758Z,25.95
2017-09-05T12:36:49.080Z,26.31
2017-09-05T12:39:17.436Z,26.08
2017-09-05T12:41:45.766Z,26.63
2017-09-05T12:44:14.084Z,26.69
2017-09-05T12:46:42.458Z,26.80
2017-09-05T12:49:10.770Z,27.52
2017-09-05T12:51:39.082Z,28.23
2017-09-05T12:54:07.430Z,27.99
2017-09-05T12:56:35.750Z,27.40
2017-09-05T12:59:04.063Z,27.04
2017-09-05T13:01:32.406Z,26.79
2017-09-05T13:04:00.732Z,26.51
2017-09-05T13:06:29.046Z,26.44
2017-09-05T13:08:57.386Z,26.32
2017-09-05T13:11:25.701Z,26.03
2017-09-05T13:13:54.038Z,25.85
2017-09-05T13:16:22.351Z,25.65
2017-09-05T13:18:50.680Z,25.50
2017-09-05T13:21:19.019Z,24.96
2017-09-05T13:23:47.333Z,25.37
2017-09-05T13:26:15.653Z,25.56
2017-09-05T13:28:43.997Z,25.24
2017-09-05T13:31:12.315Z,25.09
2017-09-05T13:33:40.672Z,25.00
2017-09-05T13:36:08.997Z,25.09
2017-09-05T13:38:37.343Z,25.26
2017-09-05T13:41:05.672Z,25.57
2017-09-05T13:43:33.996Z,25.98
2017-09-05T13:46:02.363Z,26.75
2017-09-05T13:48:30.685Z,27.70
2017-09-05T13:50:59.002Z,29.22
2017-09-05T13:53:27.345Z,29.07
2017-09-05T13:55:55.672Z,28.73
2017-09-05T13:58:24.018Z,28.49
2017-09-05T14:00:52.333Z,27.54
2017-09-05T14:03:20.662Z,26.92
2017-09-05T14:05:49.002Z,26.05
2017-09-05T14:08:17.318Z,25.92
2017-09-05T14:10:45.669Z,25.62
2017-09-05T14:13:13.982Z,25.22
2017-09-05T14:15:42.322Z,25.10
2017-09-05T14:18:10.642Z,24.94
2017-09-05T14:20:38.966Z,24.88
2017-09-05T14:23:07.310Z,24.86
2017-09-05T14:25:35.639Z,24.68
2017-09-05T14:28:03.966Z,24.67
2017-09-05T14:30:32.312Z,24.63
2017-09-05T14:33:00.637Z,24.45
2017-09-05T14:35:28.979Z,24.51
2017-09-05T14:37:57.300Z,24.54
2017-09-05T14:40:25.615Z,24.73
2017-09-05T14:42:53.958Z,24.79
2017-09-05T14:45:22.278Z,24.71
2017-09-05T14:47:50.625Z,24.56
2017-09-05T14:50:18.947Z,24.55
2017-09-05T14:52:47.295Z,24.43
2017-09-05T14:55:15.618Z,24.46
2017-09-05T14:57:43.941Z,24.36
2017-09-05T15:00:12.281Z,24.35
2017-09-05T15:02:40.606Z,24.38
2017-09-05T15:05:08.922Z,24.38
2017-09-05T15:07:37.272Z,24.46
2017-09-05T15:10:05.591Z,24.26
2017-09-05T15:12:33.906Z,24.07
2017-09-05T15:15:02.247Z,24.17
2017-09-05T15:17:30.567Z,24.29
2017-09-05T15:19:58.901Z,24.32
2017-09-05T15:22:27.262Z,24.38
2017-09-05T15:24:55.590Z,24.42
2017-09-05T15:27:23.937Z,24.49
2017-09-05T15:29:52.267Z,24.54
2017-09-05T15:32:20.592Z,24.38
2017-09-05T15:34:48.944Z,24.31
2017-09-05T15:37:17.270Z,24.53
2017-09-05T15:39:45.613Z,24.64
2017-09-05T15:42:13.927Z,24.65
2017-09-05T15:44:42.280Z,24.71
2017-09-05T15:47:10.608Z,24.59
2017-09-05T15:49:38.936Z,24.56
2017-09-05T15:52:07.282Z,24.66
2017-09-05T15:54:35.616Z,24.60
2017-09-05T15:57:03.962Z,24.70
2017-09-05T15:59:32.279Z,24.71
2017-09-05T16:02:00.603Z,24.63
2017-09-05T16:04:28.950Z,24.63
2017-09-05T16:06:57.276Z,24.39
2017-09-05T16:09:25.623Z,24.30
2017-09-05T16:11:53.950Z,24.45
2017-09-05T16:14:22.259Z,24.55
2017-09-05T16:16:50.600Z,24.61
2017-09-05T16:19:18.919Z,24.62
2017-09-05T16:21:47.238Z,24.63
2017-09-05T16:24:15.636Z,24.67
2017-09-05T16:26:44.227Z,24.64
2017-09-05T16:29:12.570Z,24.71
2017-09-05T16:31:40.890Z,24.76
2017-09-05T16:34:09.250Z,24.81
2017-09-05T16:36:37.571Z,24.82
2017-09-05T16:39:05.900Z,24.82
2017-09-05T16:41:34.249Z,24.75
2017-09-05T16:44:02.574Z,24.69
2017-09-05T16:46:30.900Z,24.64
2017-09-05T16:48:59.249Z,24.63
2017-09-05T16:51:27.569Z,24.62
2017-09-05T16:53:55.887Z,24.57
2017-09-05T16:56:24.236Z,24.56
2017-09-05T16:58:52.555Z,24.52
2017-09-05T17:01:20.910Z,24.48
2017-09-05T17:03:49.232Z,24.43
2017-09-05T17:06:17.546Z,24.34
2017-09-05T17:08:45.900Z,24.26
2017-09-05T17:11:14.222Z,24.11
2017-09-05T17:13:42.576Z,24.05
2017-09-05T17:16:10.901Z,23.99
2017-09-05T17:18:39.243Z,23.96
2017-09-05T17:21:07.569Z,23.93
2017-09-05T17:23:35.893Z,23.90
2017-09-05T17:26:04.241Z,23.84
2017-09-05T17:28:32.586Z,23.82
2017-09-05T17:31:00.914Z,23.73
2017-09-05T17:33:29.234Z,23.66
2017-09-05T17:35:57.602Z,23.58
2017-09-05T17:38:25.915Z,23.56
2017-09-05T17:40:54.230Z,23.51
2017-09-05T17:43:22.605Z,23.47
2017-09-05T17:45:50.922Z,23.41
2017-09-05T17:48:19.255Z,23.17
2017-09-05T17:50:47.610Z,23.15
2017-09-05T17:53:15.929Z,23.04
2017-09-05T17:55:44.309Z,23.05
2017-09-05T17:58:12.654Z,22.87
2017-09-05T18:00:40.970Z,22.78
2017-09-05T18:03:09.311Z,22.67
2017-09-05T18:05:37.624Z,22.63
2017-09-05T18:08:05.944Z,22.25
2017-09-05T18:10:34.293Z,22.14
2017-09-05T18:13:02.619Z,22.15
2017-09-05T18:15:30.972Z,22.31
2017-09-05T18:17:59.286Z,22.15
2017-09-05T18:20:27.619Z,21.82
2017-09-05T18:22:55.967Z,21.85
2017-09-05T18:25:24.286Z,21.71
2017-09-05T18:27:52.610Z,21.86
2017-09-05T18:30:20.950Z,21.89
2017-09-05T18:32:49.267Z,21.96
2017-09-05T18:35:17.612Z,21.82
2017-09-05T18:37:45.935Z,21.80
2017-09-05T18:40:14.258Z,21.68
2017-09-05T18:42:42.607Z,21.77
2017-09-05T18:45:10.929Z,21.93
2017-09-05T18:47:39.278Z,21.89
2017-09-05T18:50:07.608Z,21.64
2017-09-05T18:52:35.958Z,21.69
2017-09-05T18:55:04.285Z,21.56
2017-09-05T18:57:32.634Z,21.56
2017-09-05T19:00:00.982Z,21.48
2017-09-05T19:02:29.300Z,21.43
2017-09-05T19:04:57.642Z,21.48
2017-09-05T19:07:25.969Z,21.54
2017-09-05T19:09:54.327Z,21.45
2017-09-05T19:12:22.648Z,21.41
2017-09-05T19:14:50.975Z,21.58
2017-09-05T19:17:19.336Z,21.44
2017-09-05T19:19:47.658Z,21.62
2017-09-05T19:22:15.996Z,21.62
2017-09-05T19:24:44.346Z,21.52
2017-09-05T19:27:12.672Z,21.59
2017-09-05T19:29:40.994Z,21.57
2017-09-05T19:32:09.344Z,21.74
2017-09-05T19:34:37.668Z,21.79
2017-09-05T19:37:05.993Z,21.82
2017-09-05T19:39:34.360Z,21.80
2017-09-05T19:42:02.682Z,21.82
2017-09-05T19:44:31.027Z,21.85
2017-09-05T19:46:59.351Z,21.76
2017-09-05T19:49:27.744Z,21.48
2017-09-05T19:51:56.089Z,21.51
2017-09-05T19:54:24.436Z,21.33
2017-09-05T19:56:52.762Z,21.25
2017-09-05T19:59:21.082Z,21.10
2017-09-05T20:01:49.442Z,21.28
2017-09-05T20:04:17.767Z,21.37
2017-09-05T20:06:46.095Z,21.43
2017-09-05T20:09:14.523Z,21.43
2017-09-05T20:11:42.839Z,21.30
2017-09-05T20:14:11.193Z,20.91
2017-09-05T20:16:39.516Z,20.96
2017-09-05T20:19:07.846Z,21.04
2017-09-05T20:21:36.189Z,20.98
2017-09-05T20:24:04.505Z,20.98
2017-09-05T20:26:32.850Z,21.00
2017-09-05T20:29:01.162Z,20.99
2017-09-05T20:31:29.471Z,20.91
2017-09-05T20:33:58.329Z,20.79
2017-09-05T20:36:26.922Z,20.79
2017-09-05T20:38:55.762Z,20.80
2017-09-05T20:41:25.025Z,20.81
2017-09-05T20:43:54.056Z,20.70
2017-09-05T20:46:22.560Z,20.78
2017-09-05T20:48:50.894Z,20.75
2017-09-05T20:51:19.224Z,20.70
2017-09-05T20:53:47.571Z,20.79
2017-09-05T20:56:15.894Z,20.80
2017-09-05T20:58:44.219Z,20.79
2017-09-05T21:01:12.579Z,20.83
2017-09-05T21:03:41.010Z,20.82
2017-09-05T21:06:09.352Z,20.76
2017-09-05T21:08:37.707Z,20.80
2017-09-05T21:11:06.037Z,20.84
2017-09-05T21:13:34.364Z,20.81
2017-09-05T21:16:02.707Z,20.67
2017-09-05T21:18:31.034Z,20.71
2017-09-05T21:20:59.380Z,20.74
2017-09-05T21:23:27.694Z,20.83
2017-09-05T21:25:56.009Z,20.78
2017-09-05T21:28:24.355Z,20.80
2017-09-05T21:30:52.682Z,20.86
2017-09-05T21:33:21.019Z,20.85
2017-09-05T21:35:49.365Z,20.72
2017-09-05T21:38:17.701Z,20.83
2017-09-05T21:40:46.030Z,20.88
2017-09-05T21:43:14.370Z,20.84
2017-09-05T21:45:42.694Z,20.82
2017-09-05T21:48:11.018Z,20.79
2017-09-05T21:50:39.367Z,20.77
2017-09-05T21:53:07.683Z,20.75
2017-09-05T21:55:36.002Z,20.69
2017-09-05T21:58:04.348Z,20.61
2017-09-05T22:00:32.675Z,20.64
2017-09-05T22:03:00.994Z,20.66
2017-09-05T22:05:29.346Z,20.61
2017-09-05T22:07:57.679Z,20.44
2017-09-05T22:10:25.999Z,20.43
2017-09-05T22:12:54.360Z,20.43
2017-09-05T22:15:28.135Z,20.41
2017-09-05T22:17:56.499Z,20.37
2017-09-05T22:20:30.303Z,20.33
2017-09-05T22:22:59.306Z,20.29
2017-09-05T22:25:33.187Z,20.24
2017-09-05T22:28:06.995Z,20.19
2017-09-05T22:30:35.310Z,20.12
2017-09-05T22:33:03.882Z,20.09
2017-09-05T22:35:32.235Z,19.94
2017-09-05T22:38:00.550Z,19.86
2017-09-05T22:40:28.870Z,19.85
2017-09-05T22:42:57.226Z,19.52
2017-09-05T22:45:25.552Z,19.57
2017-09-05T22:47:53.883Z,19.51
2017-09-05T22:50:22.227Z,19.53
2017-09-05T22:52:50.561Z,19.61
2017-09-05T22:55:18.880Z,19.44
2017-09-05T22:57:47.239Z,19.54
2017-09-05T23:00:15.568Z,19.37
2017-09-05T23:02:43.894Z,19.33
2017-09-05T23:05:12.243Z,19.46
2017-09-05T23:07:40.569Z,19.42
2017-09-05T23:10:08.906Z,19.41
2017-09-05T23:12:37.251Z,19.50
2017-09-05T23:15:05.571Z,19.62
2017-09-05T23:17:33.890Z,19.58
2017-09-05T23:20:02.271Z,19.58
2017-09-05T23:22:30.589Z,19.33
2017-09-05T23:24:58.915Z,19.42
2017-09-05T23:27:27.263Z,19.57
2017-09-05T23:29:55.587Z,19.67
2017-09-05T23:32:23.908Z,19.75
2017-09-05T23:34:52.266Z,19.84
2017-09-05T23:37:20.586Z,19.75
2017-09-05T23:39:48.926Z,19.37
2017-09-05T23:42:17.279Z,19.41
2017-09-05T23:44:45.608Z,19.37
2017-09-05T23:47:13.929Z,19.47
2017-09-05T23:49:42.282Z,19.40
2017-09-05T23:52:10.603Z,19.62
2017-09-05T23:54:38.927Z,19.77
2017-09-05T23:57:07.283Z,19.79
2017-09-05T23:59:35.598Z,19.81
